Time;durP1;ratioP1;P1;durP2;ratioP2;P2;SDS_P1;SDS_P2;PMS_P1;PMS_P2;Temp;Humidity;BMP_temperature;BMP_pressure;BME280_temperature;BME280_humidity;BME280_pressure;Samples;Min_cycle;Max_cycle;Signal;HPM_P1;HPM_P2
2023/10/14 00:01:04;;;;;;;14.05;2.47;;;;;;;15.01;85.50;98632.56;5075490;28;20028;-73
2023/10/14 00:03:32;;;;;;;17.13;2.67;;;;;;;14.99;85.57;98629.31;5096763;28;20051;-73
2023/10/14 00:06:00;;;;;;;15.57;2.80;;;;;;;14.98;85.70;98639.34;5094651;28;20036;-73
2023/10/14 00:08:31;;;;;;;18.15;3.17;;;;;;;15.01;85.41;98646.91;5093265;28;20020;-73
2023/10/14 00:10:59;;;;;;;17.05;2.92;;;;;;;14.94;85.24;98645.63;5094918;28;20020;-73
2023/10/14 00:13:30;;;;;;;16.83;3.03;;;;;;;14.95;84.69;98634.50;5078271;28;20024;-73
2023/10/14 00:15:55;;;;;;;14.20;3.00;;;;;;;14.88;83.81;98634.00;5093417;28;20028;-73
2023/10/14 00:18:21;;;;;;;23.40;3.00;;;;;;;14.83;83.63;98633.22;5093089;28;20085;-73
2023/10/14 00:20:46;;;;;;;16.35;2.70;;;;;;;14.93;82.70;98639.41;5076283;28;20020;-74
2023/10/14 00:23:12;;;;;;;19.10;3.28;;;;;;;14.95;82.28;98648.03;5094388;28;20399;-73
2023/10/14 00:25:37;;;;;;;16.83;3.28;;;;;;;15.01;82.25;98655.03;5091033;28;20127;-73
2023/10/14 00:28:07;;;;;;;14.82;3.03;;;;;;;14.99;82.04;98651.78;5074287;28;20031;-73
2023/10/14 00:30:33;;;;;;;13.90;2.72;;;;;;;14.86;81.36;98654.31;5092159;28;20051;-73
2023/10/14 00:32:58;;;;;;;11.38;2.40;;;;;;;14.75;78.58;98642.75;5091081;28;20063;-73
2023/10/14 00:35:26;;;;;;;11.77;2.20;;;;;;;14.72;76.75;98637.88;5090316;28;20126;-73
2023/10/14 00:37:52;;;;;;;16.92;2.88;;;;;;;14.78;75.21;98636.78;5073914;28;20085;-74
2023/10/14 00:40:24;;;;;;;14.35;2.53;;;;;;;14.75;74.32;98626.50;5073478;28;20028;-73
2023/10/14 00:42:51;;;;;;;16.92;2.95;;;;;;;14.83;74.27;98635.94;5090583;28;20036;-73
2023/10/14 00:45:20;;;;;;;14.45;2.45;;;;;;;14.75;74.93;98602.94;5090318;28;20050;-73
2023/10/14 00:47:49;;;;;;;14.85;2.58;;;;;;;14.92;74.82;98620.72;5074945;28;20024;-73
2023/10/14 00:52:54;;;;;;;17.80;3.28;;;;;;;14.66;75.78;98609.22;5073078;28;20060;-73
2023/10/14 00:55:24;;;;;;;18.25;2.72;;;;;;;14.71;75.33;98620.84;5071091;28;20541;-73
2023/10/14 00:57:58;;;;;;;17.08;2.65;;;;;;;14.63;74.54;98612.50;5069933;28;20067;-73
2023/10/14 01:00:34;;;;;;;14.30;2.75;;;;;;;14.67;74.72;98629.78;5071147;28;20173;-74
2023/10/14 01:03:03;;;;;;;14.77;2.58;;;;;;;14.82;74.17;98631.59;5054497;28;20443;-73
2023/10/14 01:05:29;;;;;;;16.92;2.45;;;;;;;14.74;74.91;98619.47;5053775;28;20119;-73
2023/10/14 01:07:58;;;;;;;11.32;2.55;;;;;;;14.66;75.24;98614.63;5086467;28;20035;-74
2023/10/14 01:10:25;;;;;;;15.38;2.63;;;;;;;14.65;74.61;98615.72;5074788;28;20066;-74
2023/10/14 01:12:56;;;;;;;20.67;2.72;;;;;;;14.67;73.75;98614.38;5074899;28;20024;-73
2023/10/14 01:15:23;;;;;;;19.45;2.83;;;;;;;14.68;73.92;98609.75;5092498;28;20106;-74
2023/10/14 01:17:52;;;;;;;15.68;2.50;;;;;;;14.67;73.77;98602.72;5091228;28;20035;-73
2023/10/14 01:22:47;;;;;;;19.67;3.20;;;;;;;14.60;73.24;98591.38;5090012;28;20064;-74
2023/10/14 01:25:15;;;;;;;22.17;3.75;;;;;;;14.56;73.45;98601.97;5091400;28;20035;-74
2023/10/14 01:27:43;;;;;;;17.77;2.90;;;;;;;14.59;73.92;98608.72;5073747;28;20052;-74
2023/10/14 01:30:10;;;;;;;15.50;2.80;;;;;;;14.37;74.05;98572.03;5092221;28;20463;-74
2023/10/14 01:35:12;;;;;;;16.35;2.63;;;;;;;14.41;74.62;98594.72;5073904;28;20497;-73
2023/10/14 01:37:38;;;;;;;15.68;2.88;;;;;;;14.40;75.33;98593.09;5091253;28;20039;-74
2023/10/14 01:42:49;;;;;;;17.95;3.03;;;;;;;14.33;75.00;98577.16;5090660;28;20106;-75
2023/10/14 01:45:20;;;;;;;14.73;2.38;;;;;;;14.48;75.20;98597.94;5073509;28;20514;-74
2023/10/14 01:47:49;;;;;;;21.98;2.60;;;;;;;14.58;74.73;98594.38;5097162;28;20035;-73
2023/10/14 01:50:15;;;;;;;11.95;2.25;;;;;;;14.29;74.84;98569.88;5069807;28;20024;-73
2023/10/14 01:52:41;;;;;;;9.27;2.00;;;;;;;14.40;73.44;98601.19;5077289;28;20105;-73
2023/10/14 01:55:09;;;;;;;11.68;2.13;;;;;;;14.48;72.56;98600.63;5074241;28;20020;-73
2023/10/14 01:57:36;;;;;;;12.65;2.28;;;;;;;14.37;72.21;98590.97;5074781;28;20028;-73
2023/10/14 02:00:24;;;;;;;9.00;1.58;;;;;;;14.31;71.94;98581.25;5074476;28;20027;-73
2023/10/14 02:02:58;;;;;;;15.13;1.92;;;;;;;14.32;72.26;98590.97;5075804;28;20048;-74
2023/10/14 02:05:25;;;;;;;13.65;1.67;;;;;;;14.28;72.44;98589.91;5057384;28;20526;-74
2023/10/14 02:07:52;;;;;;;10.10;1.92;;;;;;;14.38;73.40;98595.28;5073415;28;20033;-74
2023/10/14 02:10:18;;;;;;;16.30;2.40;;;;;;;14.50;73.72;98597.63;5072883;28;20029;-74
2023/10/14 02:12:43;;;;;;;9.95;2.08;;;;;;;14.46;74.79;98597.38;5074739;28;20039;-74
2023/10/14 02:15:09;;;;;;;12.55;2.58;;;;;;;14.44;76.32;98598.78;5074536;28;20062;-73
2023/10/14 02:17:34;;;;;;;15.57;2.55;;;;;;;14.54;76.59;98598.75;5072590;28;20043;-74
2023/10/14 02:20:08;;;;;;;12.52;2.28;;;;;;;14.49;77.21;98599.53;5072974;28;20737;-74
2023/10/14 02:22:38;;;;;;;13.93;2.40;;;;;;;14.41;77.56;98596.63;5071927;28;20029;-74
2023/10/14 02:25:04;;;;;;;18.40;3.20;;;;;;;14.32;77.54;98590.97;5056919;28;20020;-74
2023/10/14 02:27:30;;;;;;;17.33;3.00;;;;;;;14.33;77.00;98598.00;5072653;28;20078;-74
2023/10/14 02:29:56;;;;;;;11.60;2.10;;;;;;;14.20;77.37;98598.59;5056360;28;20066;-74
2023/10/14 02:32:21;;;;;;;14.35;2.88;;;;;;;14.12;76.57;98593.78;5073370;28;20519;-74
2023/10/14 02:34:46;;;;;;;12.73;2.13;;;;;;;14.21;75.29;98594.81;5055934;28;20033;-73
2023/10/14 02:37:15;;;;;;;13.80;2.80;;;;;;;14.16;75.78;98592.13;5074209;28;20020;-74
2023/10/14 02:39:43;;;;;;;13.68;2.20;;;;;;;14.04;75.56;98571.63;5059975;28;20029;-74
2023/10/14 02:42:09;;;;;;;17.17;2.70;;;;;;;14.10;75.49;98583.22;5076092;28;20024;-74
2023/10/14 02:44:52;;;;;;;16.33;3.05;;;;;;;14.15;74.54;98585.09;5074462;28;20017;-74
2023/10/14 02:47:19;;;;;;;15.18;2.10;;;;;;;14.16;74.03;98582.09;5074191;28;20120;-74
2023/10/14 02:49:53;;;;;;;11.52;2.03;;;;;;;14.13;73.75;98576.44;5073579;28;20012;-74
2023/10/14 02:52:19;;;;;;;19.60;2.55;;;;;;;14.25;73.88;98585.06;5088496;28;20059;-74
2023/10/14 02:55:18;;;;;;;20.30;3.22;;;;;;;14.12;75.07;98572.13;5072554;28;20078;-73
2023/10/14 02:57:40;;;;;;;19.48;3.15;;;;;;;14.12;75.74;98562.13;5073775;28;20227;-74
2023/10/14 03:00:09;;;;;;;14.85;2.70;;;;;;;14.14;76.59;98575.34;5072469;28;20516;-74
2023/10/14 03:02:54;;;;;;;16.38;2.58;;;;;;;13.86;76.95;98528.97;5072416;28;20043;-74
2023/10/14 03:05:42;;;;;;;21.65;3.92;;;;;;;14.17;76.44;98566.69;5058426;28;20074;-73
2023/10/14 03:08:11;;;;;;;18.83;2.50;;;;;;;14.09;76.96;98577.00;5076268;28;20086;-74
2023/10/14 03:10:40;;;;;;;17.40;2.75;;;;;;;14.02;76.04;98554.06;5073721;28;20028;-74
2023/10/14 03:13:14;;;;;;;14.15;2.80;;;;;;;13.94;76.28;98547.34;5056819;28;20055;-74
2023/10/14 03:16:00;;;;;;;21.05;2.70;;;;;;;13.99;76.21;98562.72;5073364;28;20760;-74
2023/10/14 03:18:37;;;;;;;17.33;2.58;;;;;;;14.12;74.87;98574.84;5076254;28;20028;-74
2023/10/14 03:21:08;;;;;;;20.75;3.20;;;;;;;14.17;74.80;98572.94;5059028;28;20073;-73
2023/10/14 03:23:35;;;;;;;13.73;2.00;;;;;;;14.11;74.68;98565.91;5076054;28;20024;-74
2023/10/14 03:26:13;;;;;;;14.68;2.42;;;;;;;14.06;72.73;98560.50;5073425;28;20020;-73
2023/10/14 03:28:38;;;;;;;19.90;3.70;;;;;;;14.19;72.32;98565.31;5073083;28;20032;-74
2023/10/14 03:31:08;;;;;;;11.00;2.10;;;;;;;14.09;72.75;98549.94;5073142;28;20502;-74
2023/10/14 03:33:43;;;;;;;12.07;2.40;;;;;;;14.15;72.39;98566.16;5071754;28;20132;-74
2023/10/14 03:36:15;;;;;;;13.32;2.55;;;;;;;14.14;71.80;98551.00;5071407;28;20119;-74
2023/10/14 03:38:42;;;;;;;18.05;3.17;;;;;;;14.10;71.96;98559.72;5071228;28;20491;-74
2023/10/14 03:46:29;;;;;;;18.50;2.58;;;;;;;14.09;72.57;98577.00;5071588;28;20115;-74
2023/10/14 03:48:55;;;;;;;11.43;1.98;;;;;;;13.81;73.75;98553.31;5071524;28;20034;-74
2023/10/14 03:51:24;;;;;;;18.58;3.05;;;;;;;13.90;73.96;98564.38;5072372;28;20031;-74
2023/10/14 03:54:07;;;;;;;15.75;2.47;;;;;;;13.80;74.37;98555.19;5071234;28;20423;-74
2023/10/14 03:56:34;;;;;;;14.77;2.78;;;;;;;13.87;73.92;98557.59;5072780;28;20036;-74
2023/10/14 03:59:01;;;;;;;15.90;2.20;;;;;;;13.69;74.12;98540.09;5072463;28;20084;-74
2023/10/14 04:04:20;;;;;;;10.63;1.40;;;;;;;13.83;72.11;98567.34;5078139;28;20071;-74
2023/10/14 04:12:08;;;;;;;12.55;2.13;;;;;;;13.81;73.56;98545.22;5072178;28;20024;-74
2023/10/14 04:14:36;;;;;;;10.57;1.90;;;;;;;13.45;74.47;98507.47;5070600;28;20043;-74
2023/10/14 04:17:30;;;;;;;13.75;2.75;;;;;;;13.75;74.43;98543.59;5070951;28;20036;-74
2023/10/14 04:22:31;;;;;;;13.85;2.20;;;;;;;13.56;75.95;98536.09;5070788;28;20024;-74
2023/10/14 04:27:54;;;;;;;14.50;2.65;;;;;;;13.62;76.73;98532.28;5071891;28;20028;-74
2023/10/14 04:30:32;;;;;;;13.65;2.67;;;;;;;13.54;76.54;98545.53;5070237;28;20024;-73
2023/10/14 04:35:32;;;;;;;14.48;2.67;;;;;;;13.80;73.43;98544.38;5071710;28;20032;-74
2023/10/14 04:38:02;;;;;;;14.25;2.60;;;;;;;13.82;72.86;98541.41;5070408;28;20025;-74
2023/10/14 04:40:37;;;;;;;20.83;2.75;;;;;;;13.85;72.03;98532.75;5054025;28;20036;-74
2023/10/14 04:45:52;;;;;;;17.35;2.92;;;;;;;13.74;72.76;98532.00;5074256;28;20131;-74
2023/10/14 04:51:06;;;;;;;20.85;3.30;;;;;;;13.78;73.81;98516.03;5071703;28;20032;-74
2023/10/14 04:53:31;;;;;;;19.80;3.38;;;;;;;13.82;74.03;98522.50;5074721;28;20445;-74
2023/10/14 04:56:01;;;;;;;19.65;3.70;;;;;;;13.86;74.20;98523.56;5071240;28;20036;-74
2023/10/14 04:58:27;;;;;;;21.35;3.28;;;;;;;13.94;74.40;98541.91;5054744;28;20059;-73
2023/10/14 05:00:56;;;;;;;21.45;3.30;;;;;;;13.80;75.21;98530.88;5079847;28;20028;-74
2023/10/14 05:03:21;;;;;;;23.67;3.67;;;;;;;13.94;75.21;98524.88;5092833;28;20394;-74
2023/10/14 05:05:55;;;;;;;24.15;3.45;;;;;;;13.75;75.95;98540.91;5090234;28;20032;-74
2023/10/14 05:08:23;;;;;;;16.40;3.17;;;;;;;13.72;75.13;98525.25;5090162;28;20024;-74
2023/10/14 05:10:52;;;;;;;24.23;3.35;;;;;;;13.83;74.16;98521.41;5089657;28;20023;-74
2023/10/14 05:13:31;;;;;;;21.00;3.95;;;;;;;13.85;73.36;98541.66;5089657;28;20032;-74
2023/10/14 05:16:15;;;;;;;18.48;2.85;;;;;;;13.81;70.73;98537.09;5074633;28;20032;-74
2023/10/14 05:18:58;;;;;;;18.42;4.28;;;;;;;13.73;66.72;98533.06;5089667;28;20395;-74
2023/10/14 05:21:36;;;;;;;19.10;3.90;;;;;;;13.77;65.13;98538.72;5090325;28;20039;-74
2023/10/14 05:24:08;;;;;;;20.08;3.13;;;;;;;13.66;64.48;98534.44;5089456;28;20042;-74
2023/10/14 05:26:44;;;;;;;15.38;2.75;;;;;;;13.62;63.59;98529.59;5090917;28;20079;-74
2023/10/14 05:29:19;;;;;;;18.08;3.42;;;;;;;13.53;62.85;98531.22;5089363;28;20382;-74
2023/10/14 05:31:46;;;;;;;20.52;3.30;;;;;;;13.69;62.61;98534.69;5089519;28;20012;-73
2023/10/14 05:34:12;;;;;;;22.15;3.75;;;;;;;13.68;63.03;98513.38;5089642;28;20028;-74
2023/10/14 05:36:37;;;;;;;23.40;3.70;;;;;;;13.47;62.89;98482.88;5090043;28;20036;-74
2023/10/14 05:39:03;;;;;;;18.23;3.50;;;;;;;13.86;63.67;98520.84;5070936;28;20039;-75
2023/10/14 05:41:33;;;;;;;16.77;3.05;;;;;;;13.77;63.26;98536.00;5087846;28;20025;-75
2023/10/14 05:43:59;;;;;;;16.17;2.80;;;;;;;13.84;62.45;98537.38;5088801;28;20089;-73
2023/10/14 05:46:24;;;;;;;18.25;3.47;;;;;;;13.89;62.73;98552.75;5090394;28;20032;-74
2023/10/14 05:48:53;;;;;;;15.65;2.78;;;;;;;13.73;62.86;98545.75;5088738;28;20031;-73
2023/10/14 05:51:19;;;;;;;14.93;2.55;;;;;;;13.74;63.83;98547.38;5088853;28;20027;-75
2023/10/14 05:53:51;;;;;;;16.38;3.05;;;;;;;13.68;64.10;98516.88;5073473;28;20093;-75
2023/10/14 05:56:16;;;;;;;9.75;1.70;;;;;;;13.54;65.75;98564.44;5094446;28;20032;-75
2023/10/14 05:58:42;;;;;;;17.80;3.00;;;;;;;13.68;65.43;98556.59;5088828;28;20496;-74
2023/10/14 06:01:13;;;;;;;11.30;2.38;;;;;;;13.51;66.26;98560.44;5088155;28;20032;-75
2023/10/14 06:03:41;;;;;;;14.50;2.35;;;;;;;13.48;69.68;98569.06;5089344;28;20074;-75
2023/10/14 06:06:09;;;;;;;12.75;2.53;;;;;;;13.22;72.21;98584.47;5088885;28;20159;-75
2023/10/14 06:08:38;;;;;;;16.45;2.78;;;;;;;13.16;72.48;98575.53;5086726;28;20080;-75
2023/10/14 06:11:07;;;;;;;18.60;3.17;;;;;;;13.18;73.61;98572.59;5089157;28;20439;-75
2023/10/14 06:13:34;;;;;;;19.27;2.67;;;;;;;12.99;76.78;98558.81;5089844;28;20047;-75
2023/10/14 06:16:06;;;;;;;17.50;3.13;;;;;;;13.19;77.10;98570.69;5090532;28;20099;-76
2023/10/14 06:18:31;;;;;;;12.48;2.47;;;;;;;12.89;78.26;98567.72;5089079;28;20084;-74
2023/10/14 06:20:59;;;;;;;12.13;2.97;;;;;;;12.71;76.89;98552.03;5072201;28;20032;-75
2023/10/14 06:23:27;;;;;;;16.42;2.78;;;;;;;12.93;75.67;98582.28;5088511;28;20028;-76
2023/10/14 06:25:54;;;;;;;18.50;2.70;;;;;;;12.81;75.31;98557.44;5088703;28;20028;-75
2023/10/14 06:28:20;;;;;;;17.88;3.42;;;;;;;13.14;74.62;98593.09;5088533;28;20111;-75
2023/10/14 06:30:46;;;;;;;22.02;3.42;;;;;;;13.05;77.58;98571.22;5088491;28;20119;-76
2023/10/14 06:33:12;;;;;;;22.45;3.55;;;;;;;12.92;82.49;98575.28;5090476;28;20040;-74
2023/10/14 06:35:47;;;;;;;28.17;4.05;;;;;;;12.90;86.45;98588.22;5095403;28;20259;-74
2023/10/14 06:38:20;;;;;;;18.55;3.40;;;;;;;12.77;89.17;98585.22;5094811;28;20034;-74
2023/10/14 06:40:54;;;;;;;19.88;3.15;;;;;;;12.66;85.76;98595.22;5096204;28;20060;-74
2023/10/14 06:43:22;;;;;;;17.65;2.70;;;;;;;12.67;83.06;98621.09;5090704;28;20059;-74
2023/10/14 06:45:51;;;;;;;17.42;2.53;;;;;;;12.63;82.34;98612.72;5074857;28;20048;-74
2023/10/14 06:48:16;;;;;;;17.33;3.35;;;;;;;12.68;80.51;98596.56;5073368;28;20033;-74
2023/10/14 06:50:42;;;;;;;12.85;2.10;;;;;;;12.62;80.13;98591.44;5073117;28;20775;-74
2023/10/14 06:53:08;;;;;;;12.65;1.85;;;;;;;12.70;78.67;98609.78;5055260;28;20579;-75
2023/10/14 06:55:37;;;;;;;17.23;3.22;;;;;;;12.61;77.12;98576.28;5072179;28;20051;-74
2023/10/14 06:58:08;;;;;;;17.17;2.83;;;;;;;12.83;77.75;98592.25;5070773;28;20108;-73
2023/10/14 07:00:37;;;;;;;21.42;3.50;;;;;;;13.09;77.71;98612.00;5053959;28;20036;-74
2023/10/14 07:03:07;;;;;;;16.85;2.60;;;;;;;12.98;79.65;98613.88;5071303;28;20033;-74
2023/10/14 07:05:43;;;;;;;20.60;2.80;;;;;;;12.94;77.88;98600.09;5071173;28;20031;-73
2023/10/14 07:08:09;;;;;;;16.23;2.80;;;;;;;13.14;77.46;98610.13;5069952;28;20028;-74
2023/10/14 07:10:34;;;;;;;9.18;2.10;;;;;;;13.32;77.05;98597.19;5071371;28;20021;-74
2023/10/14 07:13:03;;;;;;;16.75;3.38;;;;;;;13.31;77.31;98620.69;5071643;28;20044;-74
2023/10/14 07:15:32;;;;;;;20.58;3.10;;;;;;;13.58;75.68;98616.88;5071461;28;20022;-74
2023/10/14 07:17:59;;;;;;;21.00;3.53;;;;;;;13.56;75.29;98614.44;5072805;28;20067;-74
2023/10/14 07:20:31;;;;;;;16.60;2.78;;;;;;;13.50;74.71;98622.81;5077659;28;20093;-73
2023/10/14 07:22:58;;;;;;;11.27;2.58;;;;;;;13.53;73.98;98633.09;5093644;28;20059;-74
2023/10/14 07:25:31;;;;;;;19.90;2.60;;;;;;;13.37;73.58;98607.97;5072186;28;20032;-73
2023/10/14 07:27:59;;;;;;;21.80;3.67;;;;;;;13.76;72.82;98621.69;5086759;28;20024;-74
2023/10/14 07:30:27;;;;;;;12.65;2.25;;;;;;;13.68;72.02;98591.75;5090263;28;20405;-74
2023/10/14 07:32:54;;;;;;;17.60;3.20;;;;;;;13.74;71.93;98623.06;5091982;28;20023;-72
2023/10/14 07:35:20;;;;;;;19.90;2.80;;;;;;;13.42;75.44;98645.81;5090573;28;20040;-75
2023/10/14 07:37:48;;;;;;;8.52;1.77;;;;;;;12.95;80.30;98644.13;5075561;28;20035;-75
2023/10/14 07:40:26;;;;;;;12.63;2.10;;;;;;;12.72;79.92;98633.81;5092222;28;20036;-73
2023/10/14 07:43:05;;;;;;;12.52;2.05;;;;;;;12.64;78.87;98606.25;5093465;28;20501;-72
2023/10/14 07:45:37;;;;;;;11.07;1.70;;;;;;;12.62;77.92;98602.22;5093153;28;20260;-73
2023/10/14 07:48:08;;;;;;;8.60;2.17;;;;;;;12.51;77.12;98611.34;5093646;28;20107;-72
2023/10/14 07:50:46;;;;;;;9.88;1.63;;;;;;;12.86;75.63;98619.53;5092196;28;20031;-73
2023/10/14 07:53:12;;;;;;;11.95;1.92;;;;;;;13.09;70.74;98623.59;5091610;28;20051;-73
2023/10/14 07:55:47;;;;;;;5.53;1.40;;;;;;;13.19;65.74;98655.22;5091397;28;20032;-72
2023/10/14 07:58:13;;;;;;;;;;;;;;;13.10;64.13;98652.22;5091249;28;20098;-72
2023/10/14 08:00:49;;;;;;;13.57;1.77;;;;;;;13.26;64.02;98641.47;5091764;28;19947;-73
2023/10/14 08:03:22;;;;;;;13.55;2.15;;;;;;;13.46;64.71;98652.28;5090483;28;20046;-73
2023/10/14 08:06:05;;;;;;;9.32;1.80;;;;;;;13.52;65.37;98629.59;5090766;28;20020;-72
2023/10/14 08:08:31;;;;;;;13.05;2.42;;;;;;;13.45;66.16;98630.94;5079513;28;20061;-73
2023/10/14 08:10:58;;;;;;;12.32;1.92;;;;;;;13.60;67.65;98658.75;5091929;28;20109;-73
2023/10/14 08:13:24;;;;;;;12.52;2.25;;;;;;;13.52;69.02;98626.88;5093394;28;20089;-72
2023/10/14 08:15:56;;;;;;;22.35;4.00;;;;;;;13.97;68.98;98676.56;5091332;28;20436;-73
2023/10/14 08:18:25;;;;;;;14.63;2.50;;;;;;;13.85;69.61;98660.63;5092982;28;20028;-73
2023/10/14 08:20:55;;;;;;;14.95;2.83;;;;;;;13.95;70.22;98677.91;5091664;28;20028;-73
2023/10/14 08:23:21;;;;;;;23.60;2.67;;;;;;;13.77;70.58;98654.94;5091713;28;20030;-73
2023/10/14 08:25:47;;;;;;;16.77;3.08;;;;;;;13.74;70.74;98656.31;5092832;28;20118;-73
2023/10/14 08:28:13;;;;;;;13.45;2.20;;;;;;;13.65;70.90;98667.94;5091845;28;20116;-73
2023/10/14 08:30:45;;;;;;;21.17;3.40;;;;;;;13.71;70.77;98677.66;5074501;28;20118;-73
2023/10/14 08:33:15;;;;;;;17.67;3.55;;;;;;;13.46;71.91;98667.69;5091186;28;20116;-73
2023/10/14 08:35:44;;;;;;;14.80;2.63;;;;;;;13.65;71.31;98673.34;5092978;28;20043;-73
2023/10/14 08:38:12;;;;;;;16.35;3.72;;;;;;;13.61;70.43;98673.91;5093211;28;20440;-73
2023/10/14 08:40:42;;;;;;;18.02;3.47;;;;;;;13.76;69.96;98670.34;5076267;28;20032;-73
2023/10/14 08:43:10;;;;;;;25.73;4.03;;;;;;;14.10;70.12;98665.19;5091707;28;20101;-73
2023/10/14 08:45:41;;;;;;;22.30;3.78;;;;;;;13.94;71.02;98636.56;5091698;28;20030;-73
2023/10/14 08:48:11;;;;;;;12.73;2.97;;;;;;;14.39;70.75;98678.06;5091463;28;20024;-73
2023/10/14 08:50:39;;;;;;;16.58;3.13;;;;;;;14.33;71.03;98665.63;5075258;28;20024;-74
2023/10/14 08:53:06;;;;;;;25.48;4.50;;;;;;;14.64;70.21;98650.13;5091635;28;20478;-73
2023/10/14 08:55:37;;;;;;;18.15;3.22;;;;;;;14.98;69.38;98677.28;5090477;28;20023;-73
2023/10/14 08:58:06;;;;;;;25.33;4.47;;;;;;;14.91;68.46;98628.03;5092952;28;20387;-73
2023/10/14 09:00:36;;;;;;;21.42;3.67;;;;;;;15.07;69.11;98663.97;5094539;28;20024;-73
2023/10/14 09:03:05;;;;;;;16.02;2.95;;;;;;;14.79;70.51;98677.09;5092500;28;20059;-72
2023/10/14 09:05:31;;;;;;;16.90;3.22;;;;;;;14.50;72.33;98684.22;5090917;28;20486;-73
2023/10/14 09:07:59;;;;;;;23.73;3.90;;;;;;;14.05;73.34;98657.06;5092676;28;20448;-73
2023/10/14 09:10:26;;;;;;;24.10;4.38;;;;;;;14.01;74.88;98685.75;5091886;28;20046;-73
2023/10/14 09:13:03;;;;;;;23.27;3.90;;;;;;;13.90;75.35;98665.19;5092248;28;20028;-73
2023/10/14 09:15:32;;;;;;;18.20;4.00;;;;;;;13.85;76.28;98673.34;5091753;28;20103;-73
2023/10/14 09:17:58;;;;;;;25.88;4.40;;;;;;;14.16;75.15;98668.66;5090826;28;20404;-73
2023/10/14 09:20:34;;;;;;;25.02;5.43;;;;;;;14.34;75.02;98670.78;5091699;28;20036;-73
2023/10/14 09:23:19;;;;;;;12.10;2.67;;;;;;;14.14;72.87;98687.06;5074099;28;20060;-73
2023/10/14 09:25:58;;;;;;;13.00;2.47;;;;;;;14.04;71.62;98706.84;5090423;28;20028;-73
2023/10/14 09:28:29;;;;;;;14.70;2.03;;;;;;;13.97;70.91;98684.69;5091344;28;20032;-74
2023/10/14 09:30:56;;;;;;;15.55;3.40;;;;;;;14.08;69.23;98688.16;5091466;28;20020;-73
2023/10/14 09:33:42;;;;;;;18.20;3.25;;;;;;;14.02;69.37;98694.66;5090213;28;20028;-73
2023/10/14 09:36:14;;;;;;;18.92;3.63;;;;;;;14.01;69.45;98690.34;5090501;28;20032;-73
2023/10/14 09:38:41;;;;;;;14.30;2.22;;;;;;;13.97;70.95;98687.38;5091675;28;20487;-73
2023/10/14 09:41:10;;;;;;;18.92;3.50;;;;;;;13.87;70.24;98676.56;5091165;28;20085;-73
2023/10/14 09:43:39;;;;;;;14.27;2.83;;;;;;;13.94;70.52;98692.50;5075185;28;20032;-73
2023/10/14 09:46:08;;;;;;;18.73;3.67;;;;;;;14.09;70.47;98706.00;5075368;28;20054;-73
2023/10/14 09:48:35;;;;;;;18.42;3.22;;;;;;;13.92;70.79;98711.72;5094103;28;20028;-73
2023/10/14 09:51:03;;;;;;;9.30;2.38;;;;;;;13.81;68.73;98702.00;5092704;28;20032;-72
2023/10/14 09:53:36;;;;;;;12.95;2.53;;;;;;;13.77;67.79;98709.81;5093268;28;20048;-72
2023/10/14 09:56:09;;;;;;;12.30;2.30;;;;;;;13.67;67.56;98681.97;5090702;28;20020;-73
2023/10/14 09:58:36;;;;;;;18.23;3.20;;;;;;;13.95;67.95;98699.53;5090926;28;20108;-73
2023/10/14 10:01:06;;;;;;;18.10;3.17;;;;;;;13.95;68.20;98707.66;5089949;28;20036;-73
2023/10/14 10:03:45;;;;;;;13.52;2.65;;;;;;;14.09;67.77;98696.00;5091711;28;20052;-73
2023/10/14 10:06:20;;;;;;;16.92;3.10;;;;;;;14.04;66.88;98698.72;5089848;28;20080;-73
2023/10/14 10:09:17;;;;;;;12.95;2.28;;;;;;;14.18;64.52;98708.97;5093573;28;20110;-72
2023/10/14 10:11:46;;;;;;;23.55;3.10;;;;;;;14.54;64.34;98704.28;5095336;28;20376;-73
2023/10/14 10:14:12;;;;;;;16.52;3.25;;;;;;;14.47;64.93;98672.09;5078016;28;20105;-73
2023/10/14 10:16:40;;;;;;;17.77;3.00;;;;;;;14.72;64.46;98690.13;5078138;28;20040;-72
2023/10/14 10:19:08;;;;;;;23.80;3.95;;;;;;;14.87;64.53;98718.25;5095487;28;20521;-73
2023/10/14 10:21:40;;;;;;;18.08;3.67;;;;;;;15.02;63.39;98704.59;5095028;28;20040;-73
2023/10/14 10:24:18;;;;;;;21.73;3.38;;;;;;;15.09;61.38;98720.53;5094900;28;20024;-72
2023/10/14 10:26:58;;;;;;;15.48;2.22;;;;;;;15.29;61.28;98725.84;5094429;28;20106;-72
2023/10/14 10:29:23;;;;;;;17.15;3.85;;;;;;;14.94;61.47;98672.69;5093572;28;20491;-71
2023/10/14 10:32:16;;;;;;;15.38;2.58;;;;;;;15.26;60.46;98720.97;5093696;28;20032;-73
2023/10/14 10:35:07;;;;;;;15.20;2.95;;;;;;;15.06;59.75;98718.38;5093856;28;20024;-73
2023/10/14 10:37:48;;;;;;;20.67;3.45;;;;;;;15.09;60.80;98723.25;5094952;28;20089;-73
2023/10/14 10:40:17;;;;;;;17.58;3.05;;;;;;;15.14;60.39;98710.50;5094500;28;20390;-74
2023/10/14 10:42:53;;;;;;;17.42;2.65;;;;;;;15.22;58.43;98699.06;5097685;28;20130;-75
2023/10/14 10:45:20;;;;;;;16.55;3.75;;;;;;;15.50;57.68;98700.22;5099989;28;20043;-75
2023/10/14 10:47:54;;;;;;;14.05;2.42;;;;;;;15.48;56.38;98699.69;5100598;28;20048;-76
2023/10/14 10:50:22;;;;;;;12.50;2.45;;;;;;;15.28;57.18;98689.81;5094650;28;20020;-75
2023/10/14 10:53:16;;;;;;;21.63;4.22;;;;;;;15.40;59.60;98707.63;5095384;28;20047;-75
2023/10/14 10:55:47;;;;;;;17.67;3.58;;;;;;;15.18;61.55;98727.81;5094499;28;20032;-75
2023/10/14 10:58:14;;;;;;;18.63;3.25;;;;;;;14.78;61.78;98715.28;5093438;28;20024;-75
2023/10/14 11:00:42;;;;;;;18.95;4.00;;;;;;;14.79;62.11;98706.06;5093845;28;20102;-75
2023/10/14 11:03:13;;;;;;;20.30;3.78;;;;;;;14.33;63.30;98706.22;5077520;28;20410;-74
2023/10/14 11:05:39;;;;;;;14.63;2.95;;;;;;;14.23;64.72;98717.06;5093358;28;20074;-74
2023/10/14 11:08:05;;;;;;;26.15;4.07;;;;;;;14.23;66.25;98725.16;5093332;28;20059;-75
2023/10/14 11:10:34;;;;;;;22.33;4.28;;;;;;;14.27;67.66;98707.31;5094337;28;20063;-75
2023/10/14 11:12:59;;;;;;;23.90;4.20;;;;;;;14.44;67.28;98724.06;5092887;28;20032;-74
2023/10/14 11:15:26;;;;;;;25.48;4.45;;;;;;;14.29;68.08;98672.69;5076024;28;20024;-75
2023/10/14 11:17:54;;;;;;;18.83;3.60;;;;;;;14.46;69.52;98702.91;5092636;28;20103;-74
2023/10/14 11:20:20;;;;;;;9.82;2.10;;;;;;;14.42;69.69;98671.28;5074829;28;20269;-74
2023/10/14 11:22:46;;;;;;;16.10;3.88;;;;;;;14.40;69.45;98666.13;5093601;28;20050;-75
2023/10/14 11:25:13;;;;;;;22.65;3.45;;;;;;;14.52;70.62;98709.16;5094033;28;20031;-74
2023/10/14 11:27:41;;;;;;;26.48;4.57;;;;;;;14.67;71.17;98694.75;5092140;28;20044;-74
2023/10/14 11:30:10;;;;;;;23.88;3.95;;;;;;;14.59;72.23;98725.09;5092577;28;20028;-75
2023/10/14 11:32:35;;;;;;;18.30;3.15;;;;;;;14.34;70.19;98670.78;5093685;28;20539;-74
2023/10/14 11:35:03;;;;;;;23.08;3.78;;;;;;;14.37;68.52;98690.22;5079977;28;20096;-75
2023/10/14 11:37:33;;;;;;;11.23;2.63;;;;;;;14.27;68.49;98681.09;5096736;28;20031;-75
2023/10/14 11:40:12;;;;;;;15.80;2.75;;;;;;;14.32;67.48;98710.81;5078709;28;20032;-75
2023/10/14 11:42:39;;;;;;;17.95;3.20;;;;;;;14.45;66.62;98703.22;5095236;28;20028;-74
2023/10/14 11:45:06;;;;;;;18.02;3.35;;;;;;;14.22;66.35;98705.44;5076335;28;20068;-75
2023/10/14 11:47:36;;;;;;;17.38;2.95;;;;;;;14.56;65.39;98721.06;5094621;28;20363;-74
2023/10/14 11:50:11;;;;;;;10.68;2.10;;;;;;;14.42;64.95;98704.56;5078915;28;20028;-75
2023/10/14 11:52:44;;;;;;;25.13;4.03;;;;;;;14.52;64.53;98722.69;5096397;28;20090;-74
2023/10/14 11:55:16;;;;;;;19.40;3.50;;;;;;;14.65;64.79;98729.41;5093950;28;20028;-74
2023/10/14 11:57:46;;;;;;;27.55;4.05;;;;;;;14.65;66.57;98716.69;5093940;28;20034;-75
2023/10/14 12:00:16;;;;;;;16.95;3.58;;;;;;;14.77;66.24;98710.97;5075491;28;20038;-75
2023/10/14 12:02:43;;;;;;;20.15;3.65;;;;;;;14.74;64.79;98704.22;5094153;28;20053;-74
2023/10/14 12:05:08;;;;;;;21.20;3.88;;;;;;;14.71;64.53;98720.19;5091928;28;20118;-74
2023/10/14 12:07:34;;;;;;;14.90;2.88;;;;;;;14.65;64.49;98745.66;5092025;28;20115;-76
2023/10/14 12:10:08;;;;;;;18.80;3.47;;;;;;;14.24;65.81;98730.31;5091799;28;20119;-75
2023/10/14 12:12:33;;;;;;;17.65;3.25;;;;;;;14.48;65.25;98754.88;5092333;28;20286;-75
2023/10/14 12:14:59;;;;;;;12.68;2.95;;;;;;;14.16;63.41;98768.72;5091632;28;20516;-75
2023/10/14 12:17:45;;;;;;;16.55;3.25;;;;;;;14.43;64.13;98768.41;5092958;28;20451;-75